KMGY

Dayton-Wright Brothers Airport

Dayton, Ohio, USA
METAR KMGY 231607Z AUTO 21010KT 2SM -RA BR OVC006 15/14 A3019 RMK AO2 P0001 T01500139
Observed Flight Rules
Feb-23 @ 16:07 UTC (27 minutes ago) Instrument Flight Rules
Wind Visibility Clouds Conditions
210° at 10 knots 2 miles
  • Overcast at 600' AGL
  • Light Rain
  • Mist
Temperatures Readings Precipitation
Current 15°C / 59°F
Dewpoint 14°C / 57°F
Humidity 94%
Altimeter 30.19" Hg
Pressure 1022 hPa
Elevation 289
Current Rain 0.01
METAR KMGY 231607Z AUTO 21010KT 2SM -RA BR OVC006 15/14 A3019 RMK AO2 P0001 T01500139
Observed Flight Rules
Feb-23 @ 16:07 UTC
(27 minutes ago)
IFR
Wind Visibility
210° at 10 knots 2 miles
Clouds
  • Overcast at 600' AGL
Conditions
  • Light Rain
  • Mist
Temperature Dewpoint
15°C / 59°F 14°C / 57°F
Humidity Altimeter Pressure
94% 30.19" Hg 1022 hPa
Current Rain
0.01